sensor_id;sensor_type;location;lat;lon;timestamp;P1;durP1;ratioP1;P2;durP2;ratioP2
2211;SDS011;48849;48.758;9.158;2023-11-19T00:01:33;5.18;;;3.17;;
2211;SDS011;48849;48.758;9.158;2023-11-19T00:03:59;2.88;;;2.58;;
2211;SDS011;48849;48.758;9.158;2023-11-19T00:06:26;3.47;;;2.60;;
2211;SDS011;48849;48.758;9.158;2023-11-19T00:08:53;3.30;;;2.65;;
2211;SDS011;48849;48.758;9.158;2023-11-19T00:11:20;5.50;;;3.15;;
2211;SDS011;48849;48.758;9.158;2023-11-19T00:13:47;4.07;;;3.28;;
2211;SDS011;48849;48.758;9.158;2023-11-19T00:16:15;4.28;;;2.67;;
2211;SDS011;48849;48.758;9.158;2023-11-19T00:18:42;3.03;;;2.83;;
2211;SDS011;48849;48.758;9.158;2023-11-19T00:21:09;3.60;;;2.92;;
2211;SDS011;48849;48.758;9.158;2023-11-19T00:23:36;2.85;;;2.40;;
2211;SDS011;48849;48.758;9.158;2023-11-19T00:26:03;3.90;;;3.60;;
2211;SDS011;48849;48.758;9.158;2023-11-19T00:28:31;3.60;;;3.13;;
2211;SDS011;48849;48.758;9.158;2023-11-19T00:30:58;4.85;;;3.25;;
2211;SDS011;48849;48.758;9.158;2023-11-19T00:33:26;3.00;;;2.78;;
2211;SDS011;48849;48.758;9.158;2023-11-19T00:35:53;3.08;;;2.78;;
2211;SDS011;48849;48.758;9.158;2023-11-19T00:38:20;2.70;;;2.50;;
2211;SDS011;48849;48.758;9.158;2023-11-19T00:40:47;3.40;;;2.78;;
2211;SDS011;48849;48.758;9.158;2023-11-19T00:43:14;4.03;;;2.45;;
2211;SDS011;48849;48.758;9.158;2023-11-19T00:45:41;2.88;;;2.67;;
2211;SDS011;48849;48.758;9.158;2023-11-19T00:48:08;3.05;;;2.13;;
2211;SDS011;48849;48.758;9.158;2023-11-19T00:50:36;2.95;;;2.65;;
2211;SDS011;48849;48.758;9.158;2023-11-19T00:53:03;6.55;;;3.00;;
2211;SDS011;48849;48.758;9.158;2023-11-19T00:55:30;6.95;;;3.90;;
2211;SDS011;48849;48.758;9.158;2023-11-19T00:57:57;3.50;;;3.20;;
2211;SDS011;48849;48.758;9.158;2023-11-19T01:00:24;2.53;;;2.33;;
2211;SDS011;48849;48.758;9.158;2023-11-19T01:02:52;2.08;;;1.88;;
2211;SDS011;48849;48.758;9.158;2023-11-19T01:05:19;2.25;;;2.03;;
2211;SDS011;48849;48.758;9.158;2023-11-19T01:07:49;2.42;;;2.00;;
2211;SDS011;48849;48.758;9.158;2023-11-19T01:10:17;2.28;;;2.03;;
2211;SDS011;48849;48.758;9.158;2023-11-19T01:12:45;2.47;;;2.00;;
2211;SDS011;48849;48.758;9.158;2023-11-19T01:15:11;2.60;;;2.30;;
2211;SDS011;48849;48.758;9.158;2023-11-19T01:17:38;2.97;;;1.83;;
2211;SDS011;48849;48.758;9.158;2023-11-19T01:20:05;1.60;;;1.50;;
2211;SDS011;48849;48.758;9.158;2023-11-19T01:22:37;1.95;;;1.50;;
2211;SDS011;48849;48.758;9.158;2023-11-19T01:25:06;1.00;;;1.00;;
2211;SDS011;48849;48.758;9.158;2023-11-19T01:27:33;1.23;;;1.00;;
2211;SDS011;48849;48.758;9.158;2023-11-19T01:30:00;1.33;;;1.23;;
2211;SDS011;48849;48.758;9.158;2023-11-19T01:32:28;1.27;;;1.17;;
2211;SDS011;48849;48.758;9.158;2023-11-19T01:34:55;1.23;;;1.13;;
2211;SDS011;48849;48.758;9.158;2023-11-19T01:37:22;3.85;;;1.40;;
2211;SDS011;48849;48.758;9.158;2023-11-19T01:39:48;1.60;;;1.50;;
2211;SDS011;48849;48.758;9.158;2023-11-19T01:42:16;1.30;;;1.20;;
2211;SDS011;48849;48.758;9.158;2023-11-19T01:44:53;1.70;;;1.60;;
2211;SDS011;48849;48.758;9.158;2023-11-19T01:47:23;2.28;;;1.10;;
2211;SDS011;48849;48.758;9.158;2023-11-19T01:49:50;1.25;;;1.10;;
2211;SDS011;48849;48.758;9.158;2023-11-19T01:52:17;2.65;;;1.63;;
2211;SDS011;48849;48.758;9.158;2023-11-19T01:54:45;1.50;;;1.40;;
2211;SDS011;48849;48.758;9.158;2023-11-19T01:57:13;1.25;;;1.15;;
2211;SDS011;48849;48.758;9.158;2023-11-19T01:59:41;1.90;;;1.52;;
2211;SDS011;48849;48.758;9.158;2023-11-19T02:02:08;1.45;;;1.30;;
2211;SDS011;48849;48.758;9.158;2023-11-19T02:04:35;1.27;;;1.17;;
2211;SDS011;48849;48.758;9.158;2023-11-19T02:07:03;2.58;;;1.83;;
2211;SDS011;48849;48.758;9.158;2023-11-19T02:09:30;2.70;;;2.17;;
2211;SDS011;48849;48.758;9.158;2023-11-19T02:11:57;1.65;;;1.30;;
2211;SDS011;48849;48.758;9.158;2023-11-19T02:14:25;1.52;;;1.42;;
2211;SDS011;48849;48.758;9.158;2023-11-19T02:16:53;1.27;;;1.17;;
2211;SDS011;48849;48.758;9.158;2023-11-19T02:19:20;2.03;;;1.40;;
2211;SDS011;48849;48.758;9.158;2023-11-19T02:21:46;1.17;;;1.08;;
2211;SDS011;48849;48.758;9.158;2023-11-19T02:24:14;1.02;;;0.93;;
2211;SDS011;48849;48.758;9.158;2023-11-19T02:26:44;1.13;;;1.02;;
2211;SDS011;48849;48.758;9.158;2023-11-19T02:29:19;1.58;;;1.15;;
2211;SDS011;48849;48.758;9.158;2023-11-19T02:31:46;1.33;;;1.20;;
2211;SDS011;48849;48.758;9.158;2023-11-19T02:34:12;9.25;;;6.65;;
2211;SDS011;48849;48.758;9.158;2023-11-19T02:36:39;9.55;;;6.90;;
2211;SDS011;48849;48.758;9.158;2023-11-19T02:39:07;2.25;;;1.92;;
2211;SDS011;48849;48.758;9.158;2023-11-19T02:41:37;3.50;;;1.80;;
2211;SDS011;48849;48.758;9.158;2023-11-19T02:44:04;1.80;;;1.70;;
2211;SDS011;48849;48.758;9.158;2023-11-19T02:46:33;2.40;;;2.20;;
2211;SDS011;48849;48.758;9.158;2023-11-19T02:49:00;2.50;;;2.08;;
2211;SDS011;48849;48.758;9.158;2023-11-19T02:51:26;1.02;;;0.73;;
2211;SDS011;48849;48.758;9.158;2023-11-19T02:53:55;2.30;;;1.00;;
2211;SDS011;48849;48.758;9.158;2023-11-19T02:56:22;1.13;;;0.90;;
2211;SDS011;48849;48.758;9.158;2023-11-19T02:58:51;2.05;;;1.60;;
2211;SDS011;48849;48.758;9.158;2023-11-19T03:01:22;2.28;;;2.03;;
2211;SDS011;48849;48.758;9.158;2023-11-19T03:03:56;1.48;;;1.38;;
2211;SDS011;48849;48.758;9.158;2023-11-19T03:06:23;2.40;;;2.20;;
2211;SDS011;48849;48.758;9.158;2023-11-19T03:08:50;2.00;;;1.80;;
2211;SDS011;48849;48.758;9.158;2023-11-19T03:11:16;1.20;;;1.10;;
2211;SDS011;48849;48.758;9.158;2023-11-19T03:13:43;1.85;;;1.65;;
2211;SDS011;48849;48.758;9.158;2023-11-19T03:16:10;5.20;;;3.00;;
2211;SDS011;48849;48.758;9.158;2023-11-19T03:18:37;1.60;;;1.50;;
2211;SDS011;48849;48.758;9.158;2023-11-19T03:21:05;1.88;;;1.55;;
2211;SDS011;48849;48.758;9.158;2023-11-19T03:23:32;2.22;;;1.58;;
2211;SDS011;48849;48.758;9.158;2023-11-19T03:26:00;1.35;;;1.25;;
2211;SDS011;48849;48.758;9.158;2023-11-19T03:28:28;1.30;;;1.20;;
2211;SDS011;48849;48.758;9.158;2023-11-19T03:30:55;0.80;;;0.68;;
2211;SDS011;48849;48.758;9.158;2023-11-19T03:33:22;1.00;;;0.90;;
2211;SDS011;48849;48.758;9.158;2023-11-19T03:35:52;2.25;;;1.08;;
2211;SDS011;48849;48.758;9.158;2023-11-19T03:38:22;0.90;;;0.73;;
2211;SDS011;48849;48.758;9.158;2023-11-19T03:40:49;1.83;;;1.70;;
2211;SDS011;48849;48.758;9.158;2023-11-19T03:43:16;1.23;;;1.10;;
2211;SDS011;48849;48.758;9.158;2023-11-19T03:45:44;1.33;;;0.90;;
2211;SDS011;48849;48.758;9.158;2023-11-19T03:48:11;0.90;;;0.77;;
2211;SDS011;48849;48.758;9.158;2023-11-19T03:50:37;1.30;;;1.10;;
2211;SDS011;48849;48.758;9.158;2023-11-19T03:53:04;1.10;;;0.88;;
2211;SDS011;48849;48.758;9.158;2023-11-19T03:55:33;1.90;;;0.80;;
2211;SDS011;48849;48.758;9.158;2023-11-19T03:57:58;1.38;;;0.80;;
2211;SDS011;48849;48.758;9.158;2023-11-19T04:00:25;1.02;;;0.95;;
2211;SDS011;48849;48.758;9.158;2023-11-19T04:02:52;1.95;;;1.50;;
2211;SDS011;48849;48.758;9.158;2023-11-19T04:05:19;4.10;;;2.13;;
2211;SDS011;48849;48.758;9.158;2023-11-19T04:07:45;0.90;;;0.90;;
2211;SDS011;48849;48.758;9.158;2023-11-19T04:10:11;1.00;;;0.90;;
2211;SDS011;48849;48.758;9.158;2023-11-19T04:12:41;2.17;;;1.00;;
2211;SDS011;48849;48.758;9.158;2023-11-19T04:15:08;1.95;;;1.48;;
2211;SDS011;48849;48.758;9.158;2023-11-19T04:17:35;1.60;;;0.80;;
2211;SDS011;48849;48.758;9.158;2023-11-19T04:20:01;1.75;;;0.90;;
2211;SDS011;48849;48.758;9.158;2023-11-19T04:22:29;1.08;;;0.70;;
2211;SDS011;48849;48.758;9.158;2023-11-19T04:24:56;1.08;;;1.00;;
2211;SDS011;48849;48.758;9.158;2023-11-19T04:27:23;1.15;;;0.70;;
2211;SDS011;48849;48.758;9.158;2023-11-19T04:29:51;4.10;;;1.05;;
2211;SDS011;48849;48.758;9.158;2023-11-19T04:32:18;0.90;;;0.90;;
2211;SDS011;48849;48.758;9.158;2023-11-19T04:34:46;1.27;;;0.77;;
2211;SDS011;48849;48.758;9.158;2023-11-19T04:37:12;1.10;;;0.85;;
2211;SDS011;48849;48.758;9.158;2023-11-19T04:39:39;3.63;;;1.00;;
2211;SDS011;48849;48.758;9.158;2023-11-19T04:42:06;0.70;;;0.60;;
2211;SDS011;48849;48.758;9.158;2023-11-19T04:44:32;1.00;;;0.90;;
2211;SDS011;48849;48.758;9.158;2023-11-19T04:47:01;1.20;;;0.75;;
2211;SDS011;48849;48.758;9.158;2023-11-19T04:49:27;1.35;;;0.90;;
2211;SDS011;48849;48.758;9.158;2023-11-19T04:51:55;1.05;;;0.95;;
2211;SDS011;48849;48.758;9.158;2023-11-19T04:54:22;0.90;;;0.75;;
2211;SDS011;48849;48.758;9.158;2023-11-19T04:56:49;1.33;;;1.05;;
2211;SDS011;48849;48.758;9.158;2023-11-19T04:59:16;4.38;;;3.15;;
2211;SDS011;48849;48.758;9.158;2023-11-19T05:01:46;1.20;;;1.10;;
2211;SDS011;48849;48.758;9.158;2023-11-19T05:04:14;1.58;;;1.48;;
2211;SDS011;48849;48.758;9.158;2023-11-19T05:06:41;3.92;;;3.53;;
2211;SDS011;48849;48.758;9.158;2023-11-19T05:09:08;2.85;;;2.65;;
2211;SDS011;48849;48.758;9.158;2023-11-19T05:11:37;2.90;;;2.60;;
2211;SDS011;48849;48.758;9.158;2023-11-19T05:14:05;2.17;;;1.75;;
2211;SDS011;48849;48.758;9.158;2023-11-19T05:16:32;2.75;;;1.45;;
2211;SDS011;48849;48.758;9.158;2023-11-19T05:18:59;2.97;;;1.70;;
2211;SDS011;48849;48.758;9.158;2023-11-19T05:21:27;1.95;;;1.00;;
2211;SDS011;48849;48.758;9.158;2023-11-19T05:23:54;1.10;;;0.90;;
2211;SDS011;48849;48.758;9.158;2023-11-19T05:26:22;1.10;;;1.00;;
2211;SDS011;48849;48.758;9.158;2023-11-19T05:28:50;2.28;;;0.95;;
2211;SDS011;48849;48.758;9.158;2023-11-19T05:31:16;1.50;;;1.40;;
2211;SDS011;48849;48.758;9.158;2023-11-19T05:33:43;5.22;;;4.72;;
2211;SDS011;48849;48.758;9.158;2023-11-19T05:36:10;1.10;;;1.00;;
2211;SDS011;48849;48.758;9.158;2023-11-19T05:38:39;2.92;;;2.17;;
2211;SDS011;48849;48.758;9.158;2023-11-19T05:41:06;1.60;;;1.35;;
2211;SDS011;48849;48.758;9.158;2023-11-19T05:43:32;3.50;;;3.20;;
2211;SDS011;48849;48.758;9.158;2023-11-19T05:45:59;1.85;;;1.75;;
2211;SDS011;48849;48.758;9.158;2023-11-19T05:48:26;2.08;;;1.88;;
2211;SDS011;48849;48.758;9.158;2023-11-19T05:50:53;2.08;;;1.10;;
2211;SDS011;48849;48.758;9.158;2023-11-19T05:53:20;2.00;;;1.80;;
2211;SDS011;48849;48.758;9.158;2023-11-19T05:55:48;1.40;;;1.20;;
2211;SDS011;48849;48.758;9.158;2023-11-19T05:58:20;2.90;;;2.00;;
2211;SDS011;48849;48.758;9.158;2023-11-19T06:00:50;2.20;;;1.67;;
2211;SDS011;48849;48.758;9.158;2023-11-19T06:03:17;1.10;;;1.00;;
2211;SDS011;48849;48.758;9.158;2023-11-19T06:05:44;0.90;;;0.90;;
2211;SDS011;48849;48.758;9.158;2023-11-19T06:08:10;0.82;;;0.80;;
2211;SDS011;48849;48.758;9.158;2023-11-19T06:10:38;1.10;;;1.00;;
2211;SDS011;48849;48.758;9.158;2023-11-19T06:13:06;1.15;;;1.02;;
2211;SDS011;48849;48.758;9.158;2023-11-19T06:15:35;1.30;;;0.80;;
2211;SDS011;48849;48.758;9.158;2023-11-19T06:18:02;1.70;;;1.25;;
2211;SDS011;48849;48.758;9.158;2023-11-19T06:20:29;0.80;;;0.80;;
2211;SDS011;48849;48.758;9.158;2023-11-19T06:22:56;1.40;;;1.00;;
2211;SDS011;48849;48.758;9.158;2023-11-19T06:25:23;2.40;;;2.20;;
2211;SDS011;48849;48.758;9.158;2023-11-19T06:27:50;3.95;;;1.73;;
2211;SDS011;48849;48.758;9.158;2023-11-19T06:30:19;1.90;;;1.80;;
2211;SDS011;48849;48.758;9.158;2023-11-19T06:32:46;3.35;;;2.08;;
2211;SDS011;48849;48.758;9.158;2023-11-19T06:35:13;2.85;;;1.40;;
2211;SDS011;48849;48.758;9.158;2023-11-19T06:37:40;2.08;;;1.63;;
2211;SDS011;48849;48.758;9.158;2023-11-19T06:40:07;2.42;;;1.38;;
2211;SDS011;48849;48.758;9.158;2023-11-19T06:42:35;1.60;;;1.30;;
2211;SDS011;48849;48.758;9.158;2023-11-19T06:45:02;1.60;;;1.30;;
2211;SDS011;48849;48.758;9.158;2023-11-19T06:47:30;1.30;;;1.00;;
2211;SDS011;48849;48.758;9.158;2023-11-19T06:49:57;0.70;;;0.70;;
2211;SDS011;48849;48.758;9.158;2023-11-19T06:52:24;1.88;;;1.00;;
2211;SDS011;48849;48.758;9.158;2023-11-19T06:54:51;2.15;;;1.00;;
2211;SDS011;48849;48.758;9.158;2023-11-19T06:57:17;2.30;;;0.70;;
2211;SDS011;48849;48.758;9.158;2023-11-19T06:59:45;1.10;;;1.00;;
2211;SDS011;48849;48.758;9.158;2023-11-19T07:02:12;0.63;;;0.63;;
2211;SDS011;48849;48.758;9.158;2023-11-19T07:04:40;1.55;;;0.77;;
2211;SDS011;48849;48.758;9.158;2023-11-19T07:07:07;1.65;;;0.80;;
2211;SDS011;48849;48.758;9.158;2023-11-19T07:09:34;1.52;;;1.02;;
2211;SDS011;48849;48.758;9.158;2023-11-19T07:12:02;2.00;;;1.80;;
2211;SDS011;48849;48.758;9.158;2023-11-19T07:14:30;1.52;;;1.20;;
2211;SDS011;48849;48.758;9.158;2023-11-19T07:16:56;1.10;;;1.00;;
2211;SDS011;48849;48.758;9.158;2023-11-19T07:19:23;1.55;;;1.30;;
2211;SDS011;48849;48.758;9.158;2023-11-19T07:21:51;1.17;;;1.08;;
2211;SDS011;48849;48.758;9.158;2023-11-19T07:24:19;1.10;;;1.00;;
2211;SDS011;48849;48.758;9.158;2023-11-19T07:26:46;2.55;;;0.90;;
2211;SDS011;48849;48.758;9.158;2023-11-19T07:29:13;1.45;;;1.30;;
2211;SDS011;48849;48.758;9.158;2023-11-19T07:31:41;1.60;;;1.50;;
2211;SDS011;48849;48.758;9.158;2023-11-19T07:34:09;1.30;;;1.10;;
2211;SDS011;48849;48.758;9.158;2023-11-19T07:36:36;2.75;;;1.67;;
2211;SDS011;48849;48.758;9.158;2023-11-19T07:39:05;1.35;;;1.10;;
2211;SDS011;48849;48.758;9.158;2023-11-19T07:41:32;1.05;;;0.95;;
2211;SDS011;48849;48.758;9.158;2023-11-19T07:43:58;1.45;;;1.35;;
2211;SDS011;48849;48.758;9.158;2023-11-19T07:46:25;2.80;;;1.70;;
2211;SDS011;48849;48.758;9.158;2023-11-19T07:48:52;2.00;;;1.40;;
2211;SDS011;48849;48.758;9.158;2023-11-19T07:51:19;1.50;;;0.90;;
2211;SDS011;48849;48.758;9.158;2023-11-19T07:53:46;3.38;;;1.35;;
2211;SDS011;48849;48.758;9.158;2023-11-19T07:56:15;1.30;;;1.20;;
2211;SDS011;48849;48.758;9.158;2023-11-19T07:58:42;2.40;;;1.00;;
2211;SDS011;48849;48.758;9.158;2023-11-19T08:01:08;1.33;;;1.10;;
2211;SDS011;48849;48.758;9.158;2023-11-19T08:03:35;3.75;;;1.52;;
2211;SDS011;48849;48.758;9.158;2023-11-19T08:06:03;2.78;;;0.90;;
2211;SDS011;48849;48.758;9.158;2023-11-19T08:08:30;5.93;;;2.78;;
2211;SDS011;48849;48.758;9.158;2023-11-19T08:10:58;3.20;;;2.90;;
2211;SDS011;48849;48.758;9.158;2023-11-19T08:13:26;2.40;;;1.70;;
2211;SDS011;48849;48.758;9.158;2023-11-19T08:15:53;2.85;;;2.47;;
2211;SDS011;48849;48.758;9.158;2023-11-19T08:18:19;1.65;;;1.40;;
2211;SDS011;48849;48.758;9.158;2023-11-19T08:20:47;1.77;;;1.63;;
2211;SDS011;48849;48.758;9.158;2023-11-19T08:23:17;1.60;;;1.50;;
2211;SDS011;48849;48.758;9.158;2023-11-19T08:25:44;1.40;;;1.30;;
2211;SDS011;48849;48.758;9.158;2023-11-19T08:28:11;2.05;;;1.08;;
2211;SDS011;48849;48.758;9.158;2023-11-19T08:30:39;1.13;;;1.02;;
2211;SDS011;48849;48.758;9.158;2023-11-19T08:33:06;1.63;;;1.30;;
2211;SDS011;48849;48.758;9.158;2023-11-19T08:35:33;1.30;;;1.20;;
2211;SDS011;48849;48.758;9.158;2023-11-19T08:37:59;1.30;;;1.20;;
2211;SDS011;48849;48.758;9.158;2023-11-19T08:40:27;1.77;;;0.90;;
2211;SDS011;48849;48.758;9.158;2023-11-19T08:42:54;1.45;;;1.00;;
2211;SDS011;48849;48.758;9.158;2023-11-19T08:45:21;1.20;;;1.10;;
2211;SDS011;48849;48.758;9.158;2023-11-19T08:47:52;1.40;;;1.25;;
2211;SDS011;48849;48.758;9.158;2023-11-19T08:50:19;1.98;;;1.10;;
2211;SDS011;48849;48.758;9.158;2023-11-19T08:52:46;2.83;;;1.73;;
2211;SDS011;48849;48.758;9.158;2023-11-19T08:55:12;1.65;;;1.20;;
2211;SDS011;48849;48.758;9.158;2023-11-19T08:57:39;1.45;;;1.35;;
2211;SDS011;48849;48.758;9.158;2023-11-19T09:00:06;0.90;;;0.90;;
2211;SDS011;48849;48.758;9.158;2023-11-19T09:02:33;1.25;;;0.93;;
2211;SDS011;48849;48.758;9.158;2023-11-19T09:05:03;1.95;;;1.00;;
2211;SDS011;48849;48.758;9.158;2023-11-19T09:07:32;1.02;;;0.82;;
2211;SDS011;48849;48.758;9.158;2023-11-19T09:09:59;1.65;;;1.55;;
2211;SDS011;48849;48.758;9.158;2023-11-19T09:12:25;1.92;;;1.20;;
2211;SDS011;48849;48.758;9.158;2023-11-19T09:14:52;1.50;;;1.10;;
2211;SDS011;48849;48.758;9.158;2023-11-19T09:17:19;1.00;;;0.90;;
2211;SDS011;48849;48.758;9.158;2023-11-19T09:19:45;2.33;;;1.10;;
2211;SDS011;48849;48.758;9.158;2023-11-19T09:22:14;3.80;;;1.15;;
2211;SDS011;48849;48.758;9.158;2023-11-19T09:24:41;1.38;;;1.00;;
2211;SDS011;48849;48.758;9.158;2023-11-19T09:27:09;1.60;;;1.20;;
2211;SDS011;48849;48.758;9.158;2023-11-19T09:29:36;2.10;;;1.77;;
2211;SDS011;48849;48.758;9.158;2023-11-19T09:32:02;3.40;;;2.97;;
2211;SDS011;48849;48.758;9.158;2023-11-19T09:34:30;4.22;;;3.20;;
2211;SDS011;48849;48.758;9.158;2023-11-19T09:36:56;3.80;;;3.05;;
2211;SDS011;48849;48.758;9.158;2023-11-19T09:39:24;3.50;;;2.97;;
2211;SDS011;48849;48.758;9.158;2023-11-19T09:41:51;3.05;;;2.75;;
2211;SDS011;48849;48.758;9.158;2023-11-19T09:44:18;2.83;;;2.15;;
2211;SDS011;48849;48.758;9.158;2023-11-19T09:46:45;4.35;;;3.00;;
2211;SDS011;48849;48.758;9.158;2023-11-19T09:49:14;3.15;;;2.55;;
2211;SDS011;48849;48.758;9.158;2023-11-19T09:51:44;3.50;;;2.88;;
2211;SDS011;48849;48.758;9.158;2023-11-19T09:54:11;3.15;;;2.40;;
2211;SDS011;48849;48.758;9.158;2023-11-19T09:56:40;2.92;;;2.60;;
2211;SDS011;48849;48.758;9.158;2023-11-19T09:59:07;3.40;;;2.30;;
2211;SDS011;48849;48.758;9.158;2023-11-19T10:01:36;4.82;;;2.88;;
2211;SDS011;48849;48.758;9.158;2023-11-19T10:04:04;3.05;;;2.10;;
2211;SDS011;48849;48.758;9.158;2023-11-19T10:06:32;2.08;;;1.83;;
2211;SDS011;48849;48.758;9.158;2023-11-19T10:08:59;4.65;;;2.40;;
2211;SDS011;48849;48.758;9.158;2023-11-19T10:11:26;3.75;;;2.20;;
2211;SDS011;48849;48.758;9.158;2023-11-19T10:13:54;2.80;;;2.10;;
2211;SDS011;48849;48.758;9.158;2023-11-19T10:16:27;2.40;;;1.65;;
2211;SDS011;48849;48.758;9.158;2023-11-19T10:18:55;3.92;;;2.60;;
2211;SDS011;48849;48.758;9.158;2023-11-19T10:21:22;2.97;;;2.67;;
2211;SDS011;48849;48.758;9.158;2023-11-19T10:23:49;6.03;;;2.70;;
2211;SDS011;48849;48.758;9.158;2023-11-19T10:26:17;4.20;;;2.40;;
2211;SDS011;48849;48.758;9.158;2023-11-19T10:28:45;2.17;;;1.98;;
2211;SDS011;48849;48.758;9.158;2023-11-19T10:31:14;1.75;;;1.65;;
2211;SDS011;48849;48.758;9.158;2023-11-19T10:33:41;1.85;;;1.65;;
2211;SDS011;48849;48.758;9.158;2023-11-19T10:36:09;2.05;;;1.30;;
2211;SDS011;48849;48.758;9.158;2023-11-19T10:38:37;1.85;;;1.48;;
2211;SDS011;48849;48.758;9.158;2023-11-19T10:41:04;3.10;;;1.48;;
2211;SDS011;48849;48.758;9.158;2023-11-19T10:43:31;1.23;;;1.10;;
2211;SDS011;48849;48.758;9.158;2023-11-19T10:46:09;1.52;;;1.27;;
2211;SDS011;48849;48.758;9.158;2023-11-19T10:48:38;3.00;;;1.33;;
2211;SDS011;48849;48.758;9.158;2023-11-19T10:51:05;1.60;;;1.10;;
2211;SDS011;48849;48.758;9.158;2023-11-19T10:53:33;2.60;;;0.90;;
2211;SDS011;48849;48.758;9.158;2023-11-19T10:56:04;1.30;;;1.20;;
2211;SDS011;48849;48.758;9.158;2023-11-19T10:58:36;1.30;;;0.90;;
2211;SDS011;48849;48.758;9.158;2023-11-19T11:01:07;3.80;;;1.00;;
2211;SDS011;48849;48.758;9.158;2023-11-19T11:03:40;2.38;;;1.10;;
2211;SDS011;48849;48.758;9.158;2023-11-19T11:06:08;1.85;;;1.00;;
2211;SDS011;48849;48.758;9.158;2023-11-19T11:08:36;1.55;;;1.00;;
2211;SDS011;48849;48.758;9.158;2023-11-19T11:11:04;1.67;;;1.25;;
2211;SDS011;48849;48.758;9.158;2023-11-19T11:13:33;1.27;;;0.88;;
2211;SDS011;48849;48.758;9.158;2023-11-19T11:16:01;1.40;;;0.80;;
2211;SDS011;48849;48.758;9.158;2023-11-19T11:18:29;2.92;;;0.90;;
2211;SDS011;48849;48.758;9.158;2023-11-19T11:20:59;2.28;;;0.90;;
2211;SDS011;48849;48.758;9.158;2023-11-19T11:23:36;2.95;;;1.50;;
2211;SDS011;48849;48.758;9.158;2023-11-19T11:26:25;2.15;;;1.60;;
2211;SDS011;48849;48.758;9.158;2023-11-19T11:29:09;3.08;;;1.52;;
2211;SDS011;48849;48.758;9.158;2023-11-19T11:31:42;1.83;;;1.50;;
2211;SDS011;48849;48.758;9.158;2023-11-19T11:34:21;2.67;;;1.15;;
2211;SDS011;48849;48.758;9.158;2023-11-19T11:37:19;1.73;;;1.00;;
2211;SDS011;48849;48.758;9.158;2023-11-19T11:39:52;2.17;;;1.15;;
2211;SDS011;48849;48.758;9.158;2023-11-19T11:42:32;1.92;;;1.23;;
2211;SDS011;48849;48.758;9.158;2023-11-19T11:44:59;1.40;;;1.02;;
2211;SDS011;48849;48.758;9.158;2023-11-19T11:50:28;1.50;;;1.30;;
2211;SDS011;48849;48.758;9.158;2023-11-19T11:55:56;1.50;;;1.10;;
2211;SDS011;48849;48.758;9.158;2023-11-19T11:58:26;1.30;;;1.20;;
2211;SDS011;48849;48.758;9.158;2023-11-19T12:00:58;4.07;;;1.70;;
2211;SDS011;48849;48.758;9.158;2023-11-19T12:03:28;2.85;;;1.20;;
2211;SDS011;48849;48.758;9.158;2023-11-19T12:05:56;1.75;;;1.33;;
2211;SDS011;48849;48.758;9.158;2023-11-19T12:08:28;1.55;;;1.00;;
2211;SDS011;48849;48.758;9.158;2023-11-19T12:11:00;1.40;;;1.10;;
2211;SDS011;48849;48.758;9.158;2023-11-19T12:13:48;4.00;;;1.38;;
2211;SDS011;48849;48.758;9.158;2023-11-19T12:16:23;1.65;;;1.20;;
2211;SDS011;48849;48.758;9.158;2023-11-19T12:18:53;2.78;;;1.58;;
2211;SDS011;48849;48.758;9.158;2023-11-19T12:21:27;1.60;;;1.10;;
2211;SDS011;48849;48.758;9.158;2023-11-19T12:23:59;1.65;;;0.93;;
2211;SDS011;48849;48.758;9.158;2023-11-19T12:26:33;2.17;;;0.70;;
2211;SDS011;48849;48.758;9.158;2023-11-19T12:29:02;2.58;;;1.15;;
2211;SDS011;48849;48.758;9.158;2023-11-19T12:31:32;1.58;;;0.95;;
2211;SDS011;48849;48.758;9.158;2023-11-19T12:34:05;1.55;;;0.90;;
2211;SDS011;48849;48.758;9.158;2023-11-19T12:36:37;2.17;;;1.33;;
2211;SDS011;48849;48.758;9.158;2023-11-19T12:39:09;1.83;;;0.90;;
2211;SDS011;48849;48.758;9.158;2023-11-19T12:41:48;3.90;;;0.90;;
2211;SDS011;48849;48.758;9.158;2023-11-19T12:44:17;4.03;;;2.20;;
2211;SDS011;48849;48.758;9.158;2023-11-19T12:46:43;2.90;;;2.10;;
2211;SDS011;48849;48.758;9.158;2023-11-19T12:49:11;2.70;;;1.73;;
2211;SDS011;48849;48.758;9.158;2023-11-19T12:51:38;1.52;;;1.13;;
2211;SDS011;48849;48.758;9.158;2023-11-19T12:54:06;2.00;;;1.00;;
2211;SDS011;48849;48.758;9.158;2023-11-19T12:56:34;2.10;;;1.00;;
2211;SDS011;48849;48.758;9.158;2023-11-19T12:59:12;2.05;;;1.00;;
2211;SDS011;48849;48.758;9.158;2023-11-19T13:01:39;1.80;;;0.73;;
2211;SDS011;48849;48.758;9.158;2023-11-19T13:04:16;2.75;;;1.08;;
2211;SDS011;48849;48.758;9.158;2023-11-19T13:06:44;1.33;;;0.65;;
2211;SDS011;48849;48.758;9.158;2023-11-19T13:09:21;3.83;;;1.13;;
2211;SDS011;48849;48.758;9.158;2023-11-19T13:11:50;1.45;;;0.70;;
2211;SDS011;48849;48.758;9.158;2023-11-19T13:14:18;1.30;;;0.80;;
2211;SDS011;48849;48.758;9.158;2023-11-19T13:16:45;1.10;;;0.70;;
2211;SDS011;48849;48.758;9.158;2023-11-19T13:19:12;1.80;;;0.75;;
2211;SDS011;48849;48.758;9.158;2023-11-19T13:21:41;1.73;;;0.90;;
2211;SDS011;48849;48.758;9.158;2023-11-19T13:24:08;2.05;;;0.80;;
2211;SDS011;48849;48.758;9.158;2023-11-19T13:26:35;2.40;;;1.85;;
2211;SDS011;48849;48.758;9.158;2023-11-19T13:29:04;1.65;;;1.10;;
2211;SDS011;48849;48.758;9.158;2023-11-19T13:31:31;2.88;;;1.10;;
2211;SDS011;48849;48.758;9.158;2023-11-19T13:33:58;2.15;;;1.00;;
2211;SDS011;48849;48.758;9.158;2023-11-19T13:36:25;1.70;;;0.70;;
2211;SDS011;48849;48.758;9.158;2023-11-19T13:38:52;2.30;;;1.20;;
2211;SDS011;48849;48.758;9.158;2023-11-19T13:41:23;1.65;;;0.80;;
2211;SDS011;48849;48.758;9.158;2023-11-19T13:43:51;4.82;;;1.05;;
2211;SDS011;48849;48.758;9.158;2023-11-19T13:46:19;2.38;;;0.75;;
2211;SDS011;48849;48.758;9.158;2023-11-19T13:48:46;2.28;;;0.73;;
2211;SDS011;48849;48.758;9.158;2023-11-19T13:51:15;1.75;;;1.00;;
2211;SDS011;48849;48.758;9.158;2023-11-19T13:53:41;2.33;;;0.80;;
2211;SDS011;48849;48.758;9.158;2023-11-19T13:56:09;2.92;;;1.00;;
2211;SDS011;48849;48.758;9.158;2023-11-19T13:58:36;0.95;;;0.63;;
2211;SDS011;48849;48.758;9.158;2023-11-19T14:01:03;1.83;;;1.00;;
2211;SDS011;48849;48.758;9.158;2023-11-19T14:03:31;2.47;;;0.75;;
2211;SDS011;48849;48.758;9.158;2023-11-19T14:05:58;1.45;;;0.80;;
2211;SDS011;48849;48.758;9.158;2023-11-19T14:08:25;1.02;;;0.80;;
2211;SDS011;48849;48.758;9.158;2023-11-19T14:10:52;3.50;;;1.08;;
2211;SDS011;48849;48.758;9.158;2023-11-19T14:13:20;1.75;;;0.95;;
2211;SDS011;48849;48.758;9.158;2023-11-19T14:15:47;1.77;;;0.93;;
2211;SDS011;48849;48.758;9.158;2023-11-19T14:18:15;2.20;;;0.80;;
2211;SDS011;48849;48.758;9.158;2023-11-19T14:20:43;1.85;;;0.80;;
2211;SDS011;48849;48.758;9.158;2023-11-19T14:23:10;2.83;;;1.00;;
2211;SDS011;48849;48.758;9.158;2023-11-19T14:25:37;1.88;;;0.80;;
2211;SDS011;48849;48.758;9.158;2023-11-19T14:28:04;0.80;;;0.70;;
2211;SDS011;48849;48.758;9.158;2023-11-19T14:30:31;2.33;;;0.90;;
2211;SDS011;48849;48.758;9.158;2023-11-19T14:32:58;1.40;;;1.00;;
2211;SDS011;48849;48.758;9.158;2023-11-19T14:35:25;1.38;;;1.05;;
2211;SDS011;48849;48.758;9.158;2023-11-19T14:37:53;1.20;;;0.90;;
2211;SDS011;48849;48.758;9.158;2023-11-19T14:40:20;0.93;;;0.68;;
2211;SDS011;48849;48.758;9.158;2023-11-19T14:42:47;7.88;;;5.05;;
2211;SDS011;48849;48.758;9.158;2023-11-19T14:45:14;6.28;;;2.33;;
2211;SDS011;48849;48.758;9.158;2023-11-19T14:47:42;3.45;;;2.13;;
2211;SDS011;48849;48.758;9.158;2023-11-19T14:50:09;2.90;;;2.10;;
2211;SDS011;48849;48.758;9.158;2023-11-19T14:52:36;6.78;;;2.85;;
2211;SDS011;48849;48.758;9.158;2023-11-19T14:55:05;5.80;;;2.40;;
2211;SDS011;48849;48.758;9.158;2023-11-19T14:57:32;3.63;;;1.75;;
2211;SDS011;48849;48.758;9.158;2023-11-19T15:00:01;2.15;;;1.70;;
2211;SDS011;48849;48.758;9.158;2023-11-19T15:02:37;2.08;;;1.25;;
2211;SDS011;48849;48.758;9.158;2023-11-19T15:05:04;1.50;;;1.10;;
2211;SDS011;48849;48.758;9.158;2023-11-19T15:07:31;2.17;;;1.20;;
2211;SDS011;48849;48.758;9.158;2023-11-19T15:10:00;2.38;;;1.00;;
2211;SDS011;48849;48.758;9.158;2023-11-19T15:12:29;1.48;;;1.00;;